Time;durP1;ratioP1;P1;durP2;ratioP2;P2;SDS_P1;SDS_P2;PMS_P1;PMS_P2;Temp;Humidity;BMP_temperature;BMP_pressure;BME280_temperature;BME280_humidity;BME280_pressure;Samples;Min_cycle;Max_cycle;Signal;HPM_P1;HPM_P2
2022/01/26 00:06:42;;;;;;;21.37;7.37;;;0.30;89.30;;;;;;1887342;76;21045;-45
2022/01/26 00:09:12;;;;;;;16.10;7.75;;;0.40;89.20;;;;;;1887263;76;21097;-45
2022/01/26 00:11:42;;;;;;;25.65;9.60;;;0.50;89.30;;;;;;1889122;74;21037;-45
2022/01/26 00:14:13;;;;;;;18.98;8.58;;;0.60;88.90;;;;;;1896680;76;21005;-45
2022/01/26 00:16:44;;;;;;;23.15;8.83;;;0.60;88.90;;;;;;1896546;76;21022;-45
2022/01/26 00:19:24;;;;;;;21.25;7.97;;;0.70;89.10;;;;;;1896563;76;21054;-45
2022/01/26 00:21:52;;;;;;;12.30;7.50;;;0.80;89.40;;;;;;1896296;74;21034;-46
2022/01/26 00:29:48;;;;;;;10.78;6.90;;;1.00;89.10;;;;;;1896575;76;21053;-45
2022/01/26 00:40:38;;;;;;;13.90;7.40;;;1.40;89.30;;;;;;1896608;76;21050;-45
2022/01/26 00:43:16;;;;;;;13.58;8.75;;;1.50;88.80;;;;;;1896444;74;21115;-46
2022/01/26 00:45:37;;;;;;;14.93;8.78;;;1.50;88.80;;;;;;1894072;75;21108;-46
2022/01/26 00:48:09;;;;;;;10.70;6.97;;;1.60;89.10;;;;;;1896610;76;21134;-45
2022/01/26 00:50:39;;;;;;;11.45;6.87;;;1.70;89.00;;;;;;1896508;76;21456;-45
2022/01/26 00:53:09;;;;;;;14.95;6.58;;;1.70;88.60;;;;;;1896657;74;21028;-46
2022/01/26 00:55:38;;;;;;;21.42;10.05;;;1.70;87.30;;;;;;1896483;76;21061;-46
2022/01/26 00:58:08;;;;;;;16.20;6.95;;;1.50;87.90;;;;;;1896504;76;21038;-46
2022/01/26 01:00:37;;;;;;;15.45;7.55;;;1.50;88.50;;;;;;1896421;74;21146;-45
2022/01/26 01:03:06;;;;;;;13.70;7.72;;;1.40;88.50;;;;;;1896468;76;21112;-45
2022/01/26 01:05:48;;;;;;;13.93;6.17;;;1.40;88.00;;;;;;1896551;76;21037;-45
2022/01/26 01:08:15;;;;;;;14.55;7.58;;;1.30;87.70;;;;;;1895043;76;21045;-47
2022/01/26 01:10:42;;;;;;;8.68;6.05;;;1.20;88.30;;;;;;1895914;74;21084;-46
2022/01/26 01:13:16;;;;;;;16.85;7.40;;;1.20;88.80;;;;;;1891288;74;21135;-45
2022/01/26 01:15:42;;;;;;;8.25;6.15;;;1.30;89.70;;;;;;1886712;75;21002;-45
2022/01/26 01:18:22;;;;;;;11.45;6.75;;;1.30;89.40;;;;;;1887325;76;21085;-45
2022/01/26 01:29:06;;;;;;;10.90;6.35;;;1.60;89.00;;;;;;1887281;76;21523;-45
2022/01/26 01:31:29;;;;;;;9.73;5.45;;;1.60;89.20;;;;;;1882109;76;21353;-47
2022/01/26 01:33:48;;;;;;;11.28;6.33;;;1.70;89.40;;;;;;1884460;76;21480;-45
2022/01/26 01:36:20;;;;;;;7.62;5.50;;;1.80;89.40;;;;;;1887239;76;21045;-45
2022/01/26 01:38:49;;;;;;;8.40;5.28;;;1.90;89.50;;;;;;1887131;76;21030;-47
2022/01/26 01:41:18;;;;;;;8.35;5.35;;;2.00;89.10;;;;;;1887219;76;21096;-46
2022/01/26 01:43:47;;;;;;;6.37;4.45;;;2.00;88.90;;;;;;1887144;76;21006;-45
2022/01/26 01:46:17;;;;;;;8.18;5.12;;;2.00;87.60;;;;;;1887123;75;21147;-46
2022/01/26 01:48:46;;;;;;;5.00;3.80;;;1.80;87.40;;;;;;1887283;75;21116;-46
2022/01/26 01:51:17;;;;;;;10.72;6.47;;;1.60;87.20;;;;;;1887138;75;21029;-46
2022/01/26 01:53:47;;;;;;;11.97;6.47;;;1.40;87.20;;;;;;1887182;75;21085;-45
2022/01/26 01:56:18;;;;;;;14.58;9.40;;;1.30;87.90;;;;;;1887147;76;21038;-45
2022/01/26 01:58:47;;;;;;;28.60;14.03;;;1.20;88.50;;;;;;1887244;76;21084;-46
2022/01/26 02:01:17;;;;;;;27.10;13.43;;;1.30;89.30;;;;;;1887159;76;21077;-46
2022/01/26 02:03:46;;;;;;;25.27;12.18;;;1.30;88.20;;;;;;1887205;76;21006;-45
2022/01/26 02:06:16;;;;;;;23.10;11.35;;;1.30;87.80;;;;;;1887344;75;21103;-45
2022/01/26 02:08:45;;;;;;;22.48;10.98;;;1.20;87.70;;;;;;1887285;76;21006;-46
2022/01/26 02:11:15;;;;;;;17.00;8.58;;;1.00;87.80;;;;;;1887376;76;21045;-45
2022/01/26 02:14:08;;;;;;;28.07;11.55;;;1.00;88.10;;;;;;1887387;74;21123;-46
2022/01/26 02:16:44;;;;;;;24.77;10.45;;;1.00;88.20;;;;;;1886554;76;21037;-45
2022/01/26 02:50:04;;;;;;;20.82;9.18;;;1.00;89.20;;;;;;1887324;76;21057;-46
2022/01/26 02:53:14;;;;;;;25.75;10.82;;;1.20;89.30;;;;;;1882125;75;21006;-46
2022/01/26 02:55:14;;;;;;;19.02;9.15;;;1.30;89.50;;;;;;1866232;76;21027;-45
2022/01/26 03:00:32;;;;;;;24.30;8.98;;;1.40;89.20;;;;;;1887350;76;21103;-45
2022/01/26 03:02:59;;;;;;;33.60;11.05;;;1.40;88.80;;;;;;1886069;75;21053;-46
2022/01/26 03:05:33;;;;;;;26.85;10.82;;;1.40;88.70;;;;;;1887030;76;21057;-45
2022/01/26 03:08:05;;;;;;;27.85;10.75;;;1.50;88.90;;;;;;1886084;76;21061;-45
2022/01/26 03:10:39;;;;;;;26.20;12.60;;;1.50;88.90;;;;;;1886994;75;21124;-45
2022/01/26 03:13:17;;;;;;;23.80;10.05;;;1.60;88.90;;;;;;1886451;74;21054;-45
2022/01/26 03:15:48;;;;;;;37.23;12.37;;;1.70;88.70;;;;;;1894017;76;21111;-46
2022/01/26 03:21:01;;;;;;;25.37;9.93;;;1.70;88.20;;;;;;1896653;76;21037;-46
2022/01/26 03:29:26;;;;;;;23.75;10.88;;;1.70;88.80;;;;;;1896708;74;21124;-45
2022/01/26 03:34:24;;;;;;;38.65;11.88;;;1.80;89.00;;;;;;1896675;74;21049;-46
2022/01/26 03:36:57;;;;;;;32.17;11.68;;;1.90;89.10;;;;;;1896703;76;21092;-45
2022/01/26 03:39:25;;;;;;;47.88;12.93;;;1.90;88.90;;;;;;1896150;74;21029;-45
2022/01/26 03:42:09;;;;;;;44.75;12.30;;;2.00;88.90;;;;;;1896666;76;21091;-45
2022/01/26 03:44:38;;;;;;;24.65;11.38;;;2.00;89.00;;;;;;1896531;76;21080;-45
2022/01/26 03:47:07;;;;;;;32.17;11.12;;;2.00;89.00;;;;;;1896675;75;21084;-46
2022/01/26 03:49:37;;;;;;;31.00;11.30;;;2.10;89.10;;;;;;1896638;76;21009;-46
2022/01/26 03:52:07;;;;;;;40.65;12.35;;;2.10;89.20;;;;;;1896515;75;21034;-45
2022/01/26 03:54:37;;;;;;;32.67;12.07;;;2.10;88.90;;;;;;1896645;76;21034;-45
2022/01/26 03:57:06;;;;;;;29.15;11.33;;;2.10;88.90;;;;;;1896582;76;21022;-45
2022/01/26 03:59:36;;;;;;;32.45;12.95;;;2.10;89.00;;;;;;1896657;76;21069;-45
2022/01/26 04:02:06;;;;;;;29.87;12.43;;;2.10;89.70;;;;;;1896657;76;21038;-45
2022/01/26 04:04:43;;;;;;;38.67;13.20;;;2.10;89.20;;;;;;1896486;76;21025;-46
2022/01/26 04:07:06;;;;;;;28.62;12.37;;;2.10;89.30;;;;;;1895034;75;21061;-45
2022/01/26 04:09:35;;;;;;;47.05;13.45;;;2.20;89.90;;;;;;1896639;76;21037;-45
2022/01/26 04:12:05;;;;;;;56.00;14.00;;;2.20;89.30;;;;;;1896566;76;21095;-47
2022/01/26 04:14:35;;;;;;;33.55;11.70;;;2.30;89.80;;;;;;1900109;75;21038;-46
2022/01/26 04:17:05;;;;;;;43.15;13.62;;;2.30;89.30;;;;;;1905030;75;20987;-46
2022/01/26 04:19:36;;;;;;;61.92;14.38;;;2.40;89.50;;;;;;1905064;75;20999;-45
2022/01/26 04:22:19;;;;;;;43.00;14.00;;;2.40;89.30;;;;;;1905116;75;20971;-46
2022/01/26 04:24:50;;;;;;;56.83;13.72;;;2.40;89.30;;;;;;1904238;75;21104;-45
2022/01/26 04:29:48;;;;;;;45.52;13.68;;;2.30;88.40;;;;;;1905146;75;21080;-45
2022/01/26 04:32:17;;;;;;;47.67;13.98;;;2.20;88.50;;;;;;1905147;75;21026;-45
2022/01/26 04:34:48;;;;;;;33.33;12.95;;;2.10;88.50;;;;;;1905086;75;21061;-45
2022/01/26 04:37:31;;;;;;;46.88;15.00;;;2.00;89.10;;;;;;1905281;75;20999;-45
2022/01/26 04:39:55;;;;;;;51.45;16.55;;;2.00;89.60;;;;;;1902579;75;21504;-45
2022/01/26 04:42:29;;;;;;;40.30;14.78;;;2.00;88.90;;;;;;1904066;75;21065;-45
2022/01/26 04:44:57;;;;;;;47.75;14.55;;;1.90;88.90;;;;;;1903458;75;21057;-47
2022/01/26 04:47:21;;;;;;;39.08;13.78;;;1.90;89.00;;;;;;1903769;75;21003;-46
2022/01/26 04:49:50;;;;;;;55.73;16.62;;;1.90;89.30;;;;;;1905082;75;21002;-45
2022/01/26 04:52:19;;;;;;;73.85;16.17;;;1.90;89.60;;;;;;1904970;75;21026;-45
2022/01/26 04:54:49;;;;;;;46.73;16.10;;;1.90;89.70;;;;;;1905030;75;20998;-45
2022/01/26 04:57:19;;;;;;;52.65;15.93;;;2.00;89.90;;;;;;1904991;75;21085;-46
2022/01/26 04:59:48;;;;;;;47.98;18.50;;;2.00;89.30;;;;;;1904987;75;21042;-48
2022/01/26 05:02:18;;;;;;;49.00;15.70;;;2.00;89.20;;;;;;1904972;75;21053;-48
2022/01/26 05:04:47;;;;;;;48.50;15.68;;;2.00;89.50;;;;;;1904889;75;21026;-47
2022/01/26 05:07:17;;;;;;;40.67;15.32;;;2.00;89.70;;;;;;1905108;75;21401;-47
2022/01/26 05:09:46;;;;;;;43.60;15.58;;;2.00;89.60;;;;;;1905088;75;21007;-48
2022/01/26 05:12:16;;;;;;;52.73;16.77;;;2.10;89.80;;;;;;1905080;75;21006;-45
2022/01/26 05:14:48;;;;;;;37.40;15.72;;;2.20;89.80;;;;;;1905053;74;21031;-47
2022/01/26 05:17:20;;;;;;;48.05;15.75;;;2.30;89.80;;;;;;1905052;75;21003;-47
2022/01/26 05:19:52;;;;;;;50.73;16.07;;;2.30;89.60;;;;;;1904817;75;21077;-47
2022/01/26 05:22:19;;;;;;;46.28;18.50;;;2.40;89.60;;;;;;1904476;75;21132;-48
2022/01/26 05:24:48;;;;;;;50.58;18.15;;;2.40;89.50;;;;;;1905077;75;21042;-47
2022/01/26 05:27:17;;;;;;;40.45;15.85;;;2.50;89.50;;;;;;1905118;75;21061;-47
2022/01/26 05:29:47;;;;;;;38.90;15.85;;;2.50;89.70;;;;;;1905156;75;21065;-48
2022/01/26 05:32:16;;;;;;;39.65;15.70;;;2.60;89.60;;;;;;1905193;75;21003;-47
2022/01/26 05:34:45;;;;;;;36.77;14.07;;;2.60;89.30;;;;;;1905106;75;20983;-47
2022/01/26 05:37:15;;;;;;;39.92;13.10;;;2.70;89.30;;;;;;1905209;75;21437;-47
2022/01/26 05:39:44;;;;;;;43.73;15.30;;;2.70;89.50;;;;;;1905222;75;21012;-48
2022/01/26 05:42:13;;;;;;;40.08;13.68;;;2.80;89.50;;;;;;1905186;75;20979;-47
2022/01/26 05:44:43;;;;;;;46.70;17.12;;;2.80;89.40;;;;;;1905038;75;21010;-47
2022/01/26 05:47:17;;;;;;;45.15;16.73;;;2.90;89.40;;;;;;1905078;75;21006;-45
2022/01/26 05:49:44;;;;;;;41.42;14.55;;;3.00;89.20;;;;;;1904162;75;21563;-47
2022/01/26 05:52:13;;;;;;;50.70;16.62;;;3.00;89.10;;;;;;1905196;75;21072;-45
2022/01/26 05:54:42;;;;;;;40.73;15.70;;;3.10;89.30;;;;;;1905160;75;20982;-44
2022/01/26 05:57:12;;;;;;;25.77;11.28;;;3.20;89.30;;;;;;1905094;75;21073;-46
2022/01/26 05:59:41;;;;;;;36.88;15.95;;;3.20;89.00;;;;;;1905076;75;20982;-45
2022/01/26 06:02:11;;;;;;;36.28;14.58;;;3.20;88.80;;;;;;1905019;75;21015;-45
2022/01/26 06:04:40;;;;;;;16.40;8.08;;;3.30;88.70;;;;;;1905041;75;21065;-45
2022/01/26 06:07:09;;;;;;;12.50;7.03;;;3.30;88.70;;;;;;1905060;75;21034;-45
2022/01/26 06:09:39;;;;;;;17.27;7.58;;;3.30;88.70;;;;;;1905042;75;21073;-45
2022/01/26 06:12:09;;;;;;;11.38;7.03;;;3.30;88.70;;;;;;1905068;75;21003;-46
2022/01/26 06:14:38;;;;;;;14.18;6.83;;;3.30;88.80;;;;;;1905063;75;20987;-45
2022/01/26 06:17:08;;;;;;;13.30;7.95;;;3.30;89.00;;;;;;1925765;74;21026;-45
2022/01/26 06:19:37;;;;;;;12.35;5.83;;;3.30;89.00;;;;;;1926981;74;21432;-45
2022/01/26 06:22:07;;;;;;;11.25;5.97;;;3.40;88.80;;;;;;1927028;74;20974;-45
2022/01/26 06:24:37;;;;;;;12.55;5.83;;;3.50;89.00;;;;;;1927096;74;21084;-46
2022/01/26 06:27:06;;;;;;;9.68;4.97;;;3.60;89.10;;;;;;1927042;74;21010;-47
2022/01/26 06:29:36;;;;;;;9.73;5.78;;;3.60;88.90;;;;;;1927108;74;20994;-46
2022/01/26 06:32:07;;;;;;;8.88;5.05;;;3.70;88.70;;;;;;1927018;74;21002;-47
2022/01/26 06:34:39;;;;;;;9.00;5.47;;;3.80;88.90;;;;;;1926982;74;21009;-46
2022/01/26 06:37:07;;;;;;;14.28;6.58;;;3.80;88.90;;;;;;1927065;74;21013;-45
2022/01/26 06:39:37;;;;;;;21.10;13.25;;;3.90;88.70;;;;;;1926985;74;21006;-46
2022/01/26 06:42:12;;;;;;;23.07;14.65;;;3.90;88.00;;;;;;1926992;74;21464;-46
2022/01/26 06:44:47;;;;;;;20.25;9.05;;;3.90;86.60;;;;;;1926048;74;21006;-46
2022/01/26 06:49:42;;;;;;;16.07;7.45;;;3.80;87.90;;;;;;1926906;74;21076;-47
2022/01/26 06:52:12;;;;;;;11.80;6.33;;;3.70;88.20;;;;;;1926921;74;21067;-46
2022/01/26 06:54:41;;;;;;;41.75;13.83;;;3.70;86.60;;;;;;1926946;74;21018;-45
2022/01/26 06:57:10;;;;;;;41.80;15.98;;;3.70;86.10;;;;;;1927040;74;21052;-46
2022/01/26 06:59:40;;;;;;;58.35;20.57;;;3.50;85.40;;;;;;1926989;74;21069;-46
2022/01/26 07:02:09;;;;;;;43.23;16.25;;;3.40;85.40;;;;;;1927026;74;21056;-46
2022/01/26 07:04:38;;;;;;;49.30;16.87;;;3.30;86.80;;;;;;1927040;74;21002;-45
2022/01/26 07:07:08;;;;;;;53.78;16.80;;;3.20;87.00;;;;;;1926930;74;20998;-47
2022/01/26 07:09:37;;;;;;;56.77;16.35;;;3.20;87.00;;;;;;1927013;74;21062;-47
2022/01/26 07:12:08;;;;;;;38.33;12.63;;;3.20;87.00;;;;;;1926887;74;21005;-47
2022/01/26 07:22:43;;;;;;;22.50;8.68;;;2.90;87.10;;;;;;1926907;74;21026;-47
2022/01/26 07:25:12;;;;;;;26.25;9.48;;;2.90;87.70;;;;;;1926819;74;21006;-45
2022/01/26 07:27:42;;;;;;;26.02;9.13;;;2.90;87.00;;;;;;1926913;74;21010;-45
2022/01/26 07:30:12;;;;;;;30.65;9.53;;;2.90;87.20;;;;;;1927028;74;21056;-47
2022/01/26 07:32:41;;;;;;;28.32;10.08;;;2.90;87.40;;;;;;1927018;74;21067;-46
2022/01/26 07:35:11;;;;;;;27.70;12.80;;;3.00;87.30;;;;;;1926786;74;21001;-46
2022/01/26 07:37:43;;;;;;;46.28;12.35;;;3.00;87.00;;;;;;1926811;74;21045;-46
2022/01/26 07:40:13;;;;;;;26.30;10.82;;;3.10;86.70;;;;;;1926962;74;21002;-46
2022/01/26 07:42:42;;;;;;;38.55;11.33;;;3.10;86.80;;;;;;1926830;74;20998;-49
2022/01/26 07:45:13;;;;;;;46.58;15.48;;;3.20;86.70;;;;;;1926899;74;21027;-46
2022/01/26 07:47:43;;;;;;;35.30;14.25;;;3.30;86.90;;;;;;1926979;74;21002;-46
2022/01/26 07:50:14;;;;;;;38.98;13.25;;;3.40;86.60;;;;;;1926912;74;20982;-47
2022/01/26 07:52:44;;;;;;;39.05;13.55;;;3.40;86.10;;;;;;1926943;74;21389;-46
2022/01/26 07:55:16;;;;;;;30.80;13.18;;;3.40;86.70;;;;;;1926893;74;21002;-47
2022/01/26 07:57:46;;;;;;;33.53;14.43;;;3.50;86.70;;;;;;1926720;74;21487;-45
2022/01/26 08:00:16;;;;;;;44.45;18.15;;;3.60;85.60;;;;;;1926786;74;21076;-46
2022/01/26 08:02:47;;;;;;;29.77;11.83;;;3.60;86.30;;;;;;1926876;74;21068;-46
2022/01/26 08:05:17;;;;;;;26.55;12.15;;;3.60;84.60;;;;;;1926928;74;21002;-48
2022/01/26 08:07:47;;;;;;;38.08;15.10;;;3.60;85.20;;;;;;1926868;74;21151;-46
2022/01/26 08:10:16;;;;;;;23.07;12.70;;;3.50;85.00;;;;;;1926777;74;21005;-46
2022/01/26 08:12:49;;;;;;;26.82;11.75;;;3.40;86.10;;;;;;1926950;74;21005;-47
2022/01/26 08:15:18;;;;;;;25.40;11.70;;;3.40;85.80;;;;;;1926916;74;20998;-46
2022/01/26 08:17:48;;;;;;;25.80;11.35;;;3.40;86.60;;;;;;1926809;74;21092;-49
2022/01/26 08:20:17;;;;;;;24.80;11.48;;;3.40;86.50;;;;;;1926807;74;21072;-46
2022/01/26 08:22:47;;;;;;;29.65;10.88;;;3.40;86.80;;;;;;1926735;74;21076;-45
2022/01/26 08:25:16;;;;;;;41.58;16.65;;;3.40;86.80;;;;;;1926608;74;21002;-46
2022/01/26 08:27:56;;;;;;;24.45;12.98;;;3.50;87.30;;;;;;1927090;74;21086;-45
2022/01/26 08:30:18;;;;;;;41.02;13.53;;;3.60;87.50;;;;;;1924897;74;21440;-47
2022/01/26 08:32:47;;;;;;;28.95;13.68;;;3.70;87.10;;;;;;1927011;74;21444;-48
2022/01/26 08:35:16;;;;;;;35.80;16.10;;;3.80;87.00;;;;;;1926890;74;21053;-47
2022/01/26 08:37:46;;;;;;;23.18;10.63;;;3.90;86.70;;;;;;1926998;74;21006;-47
2022/01/26 08:40:15;;;;;;;33.65;11.65;;;3.80;84.20;;;;;;1927197;74;21072;-46
2022/01/26 08:42:45;;;;;;;29.75;13.08;;;3.70;85.30;;;;;;1927046;74;21104;-45
2022/01/26 08:45:15;;;;;;;26.27;11.45;;;3.60;86.00;;;;;;1926898;74;20984;-48
2022/01/26 08:47:47;;;;;;;27.07;9.73;;;3.60;85.60;;;;;;1926913;74;21014;-46
2022/01/26 08:50:15;;;;;;;28.47;11.38;;;3.60;85.90;;;;;;1927036;74;21034;-46
2022/01/26 08:52:45;;;;;;;33.58;12.60;;;3.60;86.40;;;;;;1927032;74;21068;-46
2022/01/26 08:55:14;;;;;;;28.42;12.00;;;3.60;86.90;;;;;;1926902;74;21010;-47
2022/01/26 08:57:44;;;;;;;27.07;12.45;;;3.80;86.80;;;;;;1926976;74;21001;-48
2022/01/26 09:00:14;;;;;;;27.02;10.80;;;3.90;86.50;;;;;;1926903;74;21084;-46
2022/01/26 09:02:43;;;;;;;30.00;12.43;;;3.90;86.10;;;;;;1926923;74;21119;-45
2022/01/26 09:05:13;;;;;;;27.22;11.20;;;4.00;86.40;;;;;;1926959;74;21010;-46
2022/01/26 09:07:45;;;;;;;20.68;10.30;;;4.00;86.00;;;;;;1926919;74;21010;-46
2022/01/26 09:10:14;;;;;;;20.72;10.32;;;4.10;84.60;;;;;;1927064;74;21017;-46
2022/01/26 09:12:45;;;;;;;27.73;10.00;;;4.00;84.90;;;;;;1927022;74;21099;-47
2022/01/26 09:15:15;;;;;;;21.30;10.50;;;4.00;85.60;;;;;;1927237;74;21002;-48
2022/01/26 09:17:45;;;;;;;26.37;10.95;;;4.00;85.00;;;;;;1926979;74;21053;-47
2022/01/26 09:20:14;;;;;;;26.07;10.78;;;3.90;85.00;;;;;;1927108;74;21010;-47
2022/01/26 09:22:44;;;;;;;29.42;11.38;;;3.90;85.80;;;;;;1927056;74;21053;-47
2022/01/26 09:25:13;;;;;;;21.17;10.50;;;4.00;86.00;;;;;;1927029;74;21067;-47
2022/01/26 09:27:43;;;;;;;31.50;13.85;;;4.10;85.60;;;;;;1927003;74;21021;-47
2022/01/26 09:30:12;;;;;;;31.93;14.03;;;4.10;85.70;;;;;;1927009;74;21143;-48
2022/01/26 09:32:42;;;;;;;28.67;13.38;;;4.10;83.90;;;;;;1927113;74;21495;-46
2022/01/26 09:35:11;;;;;;;32.17;14.47;;;4.10;85.30;;;;;;1927030;74;21041;-46
2022/01/26 09:37:41;;;;;;;22.27;11.00;;;4.20;86.00;;;;;;1927042;74;20982;-47
2022/01/26 09:40:11;;;;;;;25.72;11.30;;;4.30;85.20;;;;;;1927065;74;20994;-46
2022/01/26 09:42:42;;;;;;;22.07;10.78;;;4.20;84.80;;;;;;1927089;74;20998;-46
2022/01/26 09:45:11;;;;;;;23.52;10.18;;;4.20;85.60;;;;;;1927038;74;21104;-45
2022/01/26 09:47:41;;;;;;;22.87;10.13;;;4.30;85.80;;;;;;1927075;74;21001;-47
2022/01/26 09:50:10;;;;;;;21.23;9.23;;;4.40;83.90;;;;;;1927038;74;21107;-47
2022/01/26 09:52:46;;;;;;;22.58;9.43;;;4.40;84.50;;;;;;1927090;74;20982;-46
2022/01/26 09:55:11;;;;;;;17.87;8.40;;;4.30;84.80;;;;;;1926201;74;21062;-46
2022/01/26 09:57:41;;;;;;;23.57;11.00;;;4.40;85.00;;;;;;1927117;74;21009;-46
2022/01/26 10:00:11;;;;;;;23.18;10.55;;;4.40;85.50;;;;;;1927038;74;20982;-48
2022/01/26 10:02:43;;;;;;;21.52;9.93;;;4.50;85.60;;;;;;1927215;74;21415;-47
2022/01/26 10:05:17;;;;;;;20.48;10.00;;;4.50;83.50;;;;;;1926909;74;20978;-47
2022/01/26 10:08:08;;;;;;;16.57;8.45;;;4.40;82.80;;;;;;1927014;74;21527;-46
2022/01/26 10:16:04;;;;;;;16.85;7.85;;;3.70;84.10;;;;;;1926985;74;21076;-46
2022/01/26 10:18:29;;;;;;;15.90;7.60;;;3.60;84.40;;;;;;1925258;74;21083;-46
2022/01/26 10:20:59;;;;;;;9.30;5.05;;;3.50;84.10;;;;;;1926987;74;21468;-46
2022/01/26 10:23:37;;;;;;;13.53;5.37;;;3.40;83.40;;;;;;1926869;74;20978;-46
2022/01/26 10:26:09;;;;;;;11.68;6.03;;;3.30;84.40;;;;;;1927005;74;21041;-46
2022/01/26 10:28:47;;;;;;;11.80;5.20;;;3.20;84.90;;;;;;1927035;74;21416;-46
2022/01/26 10:31:19;;;;;;;14.78;6.10;;;3.20;85.10;;;;;;1926902;74;21163;-46
2022/01/26 10:33:59;;;;;;;6.22;2.90;;;3.20;84.90;;;;;;1926911;74;21452;-46
2022/01/26 10:36:50;;;;;;;7.87;3.95;;;3.20;83.90;;;;;;1921490;74;20978;-47
2022/01/26 10:39:24;;;;;;;10.55;4.20;;;3.00;83.20;;;;;;1926992;74;21005;-46
2022/01/26 10:41:54;;;;;;;15.53;8.30;;;2.80;83.70;;;;;;1926897;74;21061;-46
2022/01/26 10:44:46;;;;;;;20.15;8.60;;;2.60;84.20;;;;;;1926889;74;21002;-46
2022/01/26 10:47:10;;;;;;;13.50;7.05;;;2.60;85.40;;;;;;1924452;74;21052;-47
2022/01/26 10:52:41;;;;;;;17.00;5.75;;;2.70;86.20;;;;;;1927091;74;21071;-46
2022/01/26 10:54:51;;;;;;;7.50;4.80;;;2.80;85.20;;;;;;1913438;74;21064;-48
2022/01/26 10:57:21;;;;;;;10.55;5.12;;;2.80;85.10;;;;;;1927036;74;21392;-46
2022/01/26 10:59:51;;;;;;;14.33;6.75;;;2.70;84.50;;;;;;1926899;74;20978;-47
2022/01/26 11:02:26;;;;;;;27.48;7.40;;;2.70;85.40;;;;;;1926916;74;21002;-47
2022/01/26 11:04:52;;;;;;;3.52;1.87;;;2.70;85.60;;;;;;1926157;74;21628;-47
2022/01/26 11:07:24;;;;;;;7.50;4.15;;;2.90;86.90;;;;;;1926876;74;21066;-46
2022/01/26 11:09:53;;;;;;;10.15;4.62;;;3.10;86.60;;;;;;1925165;74;21510;-46
2022/01/26 11:12:30;;;;;;;8.88;5.00;;;3.30;84.00;;;;;;1925313;74;21033;-46
2022/01/26 11:15:11;;;;;;;7.53;5.25;;;3.30;83.00;;;;;;1926353;74;21111;-45
2022/01/26 11:17:46;;;;;;;9.35;5.50;;;3.10;83.00;;;;;;1925363;74;21444;-45
2022/01/26 11:20:21;;;;;;;10.48;6.95;;;3.00;84.40;;;;;;1904200;74;21729;-45
2022/01/26 11:22:56;;;;;;;8.08;5.25;;;2.90;85.10;;;;;;1903994;75;20999;-44
2022/01/26 11:25:27;;;;;;;7.92;4.67;;;3.00;85.70;;;;;;1904538;75;21116;-44
2022/01/26 11:27:58;;;;;;;10.25;5.85;;;3.10;85.20;;;;;;1904229;75;21035;-44
2022/01/26 11:30:34;;;;;;;9.38;5.97;;;3.10;84.90;;;;;;1904417;75;21068;-44
2022/01/26 11:33:07;;;;;;;7.08;4.72;;;3.10;84.70;;;;;;1904345;75;20983;-44
2022/01/26 11:35:37;;;;;;;14.87;7.60;;;3.10;84.50;;;;;;1903492;75;20978;-44
2022/01/26 11:46:38;;;;;;;23.45;6.60;;;3.10;85.10;;;;;;1907758;75;21440;-45
2022/01/26 11:49:12;;;;;;;17.42;7.15;;;3.10;84.80;;;;;;1907658;75;21080;-45
2022/01/26 11:51:49;;;;;;;7.20;4.62;;;3.10;84.40;;;;;;1907920;75;21102;-44
2022/01/26 11:54:21;;;;;;;15.10;5.15;;;3.00;83.70;;;;;;1907643;75;21079;-45
2022/01/26 11:57:15;;;;;;;12.28;4.62;;;3.00;84.50;;;;;;1907699;75;21076;-46
2022/01/26 11:59:48;;;;;;;6.97;4.67;;;3.00;84.80;;;;;;1907480;75;21131;-45
2022/01/26 12:02:34;;;;;;;10.85;6.53;;;3.00;85.10;;;;;;1907323;75;21036;-45
2022/01/26 12:05:01;;;;;;;9.05;4.53;;;3.10;85.00;;;;;;1906485;75;21036;-45
2022/01/26 12:07:30;;;;;;;14.47;8.30;;;3.20;84.10;;;;;;1907711;75;21025;-44
2022/01/26 12:10:03;;;;;;;13.72;8.20;;;3.10;83.80;;;;;;1907637;75;21098;-44
2022/01/26 12:12:30;;;;;;;10.70;5.62;;;3.00;84.10;;;;;;1907429;75;21098;-45
2022/01/26 12:15:11;;;;;;;15.23;8.40;;;3.10;84.80;;;;;;1907767;75;21036;-45
2022/01/26 12:17:59;;;;;;;11.97;7.12;;;3.10;84.60;;;;;;1907869;75;21095;-45
2022/01/26 12:45:28;;;;;;;13.28;6.62;;;3.10;85.10;;;;;;1917821;74;21008;-45
2022/01/26 12:47:59;;;;;;;15.35;5.50;;;3.20;85.10;;;;;;1917851;75;21071;-44
2022/01/26 12:50:29;;;;;;;15.10;6.45;;;3.10;83.20;;;;;;1918025;75;21067;-44
2022/01/26 12:52:58;;;;;;;10.50;6.60;;;3.00;83.60;;;;;;1917905;75;21028;-44
2022/01/26 12:55:30;;;;;;;10.25;6.00;;;2.80;83.70;;;;;;1917519;75;21024;-44
2022/01/26 12:58:00;;;;;;;12.50;6.40;;;2.70;84.60;;;;;;1917098;74;21055;-47
2022/01/26 13:00:41;;;;;;;9.05;5.37;;;2.70;85.30;;;;;;1917892;75;21032;-45
2022/01/26 13:03:12;;;;;;;12.68;6.22;;;2.80;85.40;;;;;;1917870;75;21111;-45
2022/01/26 13:05:42;;;;;;;8.40;5.08;;;2.80;84.90;;;;;;1916939;75;21599;-44
2022/01/26 13:08:12;;;;;;;10.45;5.75;;;2.80;85.20;;;;;;1917891;75;21090;-44
2022/01/26 13:10:41;;;;;;;11.97;5.05;;;2.80;85.30;;;;;;1917700;75;21008;-45
2022/01/26 13:13:24;;;;;;;9.78;6.03;;;2.80;85.20;;;;;;1917693;75;21027;-45
2022/01/26 13:16:04;;;;;;;12.37;7.10;;;2.80;85.20;;;;;;1915938;73;21094;-45
2022/01/26 13:18:47;;;;;;;10.40;4.92;;;2.80;85.60;;;;;;1915740;74;21134;-46
2022/01/26 13:29:12;;;;;;;12.78;5.92;;;2.70;85.30;;;;;;1891418;76;21005;-46
2022/01/26 13:34:27;;;;;;;11.70;6.25;;;2.80;85.70;;;;;;1849705;76;21056;-46
2022/01/26 13:42:32;;;;;;;23.67;6.17;;;2.70;85.70;;;;;;1849794;77;20158;-44
2022/01/26 13:45:07;;;;;;;10.08;5.60;;;2.60;85.60;;;;;;1845197;77;21103;-47
2022/01/26 13:48:01;;;;;;;13.98;7.08;;;2.70;85.70;;;;;;1845020;76;21150;-47
2022/01/26 13:49:58;;;;;;;11.60;5.78;;;2.70;85.90;;;;;;1844009;76;21044;-47
2022/01/26 13:55:22;;;;;;;16.07;6.15;;;2.80;85.80;;;;;;1849669;77;21060;-45
2022/01/26 14:00:22;;;;;;;15.18;6.35;;;2.60;85.40;;;;;;1849776;76;21056;-45
2022/01/26 14:02:58;;;;;;;9.38;5.47;;;2.50;85.50;;;;;;1849772;77;21064;-45
2022/01/26 14:05:23;;;;;;;10.98;5.70;;;2.50;85.60;;;;;;1848806;76;21572;-45
2022/01/26 14:07:56;;;;;;;7.85;5.72;;;2.40;86.20;;;;;;1849804;77;21026;-45
2022/01/26 14:10:23;;;;;;;12.33;5.92;;;2.40;85.90;;;;;;1849677;76;21106;-46
2022/01/26 14:12:53;;;;;;;7.95;5.50;;;2.40;86.20;;;;;;1849829;76;21056;-46
2022/01/26 14:15:34;;;;;;;7.30;4.45;;;2.40;85.80;;;;;;1849770;77;21091;-45
2022/01/26 14:18:03;;;;;;;7.87;4.95;;;2.40;85.70;;;;;;1847345;77;21068;-46
2022/01/26 14:21:21;;;;;;;9.00;4.95;;;2.40;85.20;;;;;;1851043;76;21098;-46
2022/01/26 14:23:18;;;;;;;8.33;4.67;;;2.30;85.30;;;;;;1849426;76;21079;-46
2022/01/26 14:25:35;;;;;;;12.03;5.78;;;2.20;85.60;;;;;;1855460;77;21102;-46
2022/01/26 14:28:08;;;;;;;10.40;6.53;;;2.20;85.40;;;;;;1858387;77;21149;-45
2022/01/26 14:33:33;;;;;;;9.07;5.77;;;2.00;85.40;;;;;;1858766;76;21117;-45
2022/01/26 15:00:51;;;;;;;13.40;7.37;;;1.40;85.90;;;;;;1858536;76;21047;-45
2022/01/26 15:08:56;;;;;;;11.45;7.25;;;1.50;86.50;;;;;;1858363;76;21071;-45
2022/01/26 15:20:41;;;;;;;11.68;7.22;;;1.80;86.10;;;;;;1873134;75;21151;-45
2022/01/26 15:44:06;;;;;;;8.68;5.97;;;1.50;85.30;;;;;;1897501;76;21107;-45
2022/01/26 16:16:39;;;;;;;12.23;6.28;;;0.90;85.60;;;;;;1897509;74;21016;-45
2022/01/26 17:11:06;;;;;;;14.58;7.75;;;0.20;87.60;;;;;;1918600;75;21039;-47
2022/01/26 17:11:41;;;;;;;19.70;10.20;;;0.20;87.50;;;;;;1870161;77;21069;-46
2022/01/26 17:25:22;;;;;;;14.15;8.00;;;0.30;87.20;;;;;;1888096;75;21021;-45
2022/01/26 17:46:57;;;;;;;16.57;9.40;;;0.50;87.50;;;;;;1849771;77;21052;-45
2022/01/26 18:07:10;;;;;;;15.43;7.03;;;1.10;85.80;;;;;;1849736;77;21056;-45
2022/01/26 18:50:09;;;;;;;22.37;10.93;;;1.30;87.20;;;;;;1897542;74;21039;-45
2022/01/26 18:52:38;;;;;;;17.52;9.38;;;1.30;87.20;;;;;;1897420;75;21466;-45
2022/01/26 18:55:12;;;;;;;15.90;9.30;;;1.40;87.30;;;;;;1897529;76;21056;-45
2022/01/26 18:57:40;;;;;;;23.45;11.00;;;1.50;87.40;;;;;;1897392;74;21495;-46
2022/01/26 19:00:11;;;;;;;18.80;10.10;;;1.60;87.20;;;;;;1897443;75;21074;-44
2022/01/26 19:02:40;;;;;;;17.23;10.90;;;1.60;87.10;;;;;;1897390;75;21087;-45
2022/01/26 19:05:11;;;;;;;19.52;10.10;;;1.70;87.20;;;;;;1897539;75;21031;-45
2022/01/26 19:07:42;;;;;;;19.65;8.88;;;1.70;87.20;;;;;;1897444;74;21502;-44
2022/01/26 19:10:12;;;;;;;19.87;10.72;;;1.80;87.20;;;;;;1897449;76;21008;-46
2022/01/26 19:12:44;;;;;;;19.27;10.28;;;1.90;87.40;;;;;;1897525;74;21150;-45
2022/01/26 19:15:16;;;;;;;18.62;9.43;;;1.90;87.40;;;;;;1897558;75;21553;-45
2022/01/26 19:17:57;;;;;;;14.10;8.60;;;1.90;87.20;;;;;;1897341;74;21045;-46
2022/01/26 19:23:13;;;;;;;20.35;9.85;;;2.00;87.20;;;;;;1904087;74;21061;-45
2022/01/26 19:25:57;;;;;;;16.20;8.78;;;2.10;87.40;;;;;;1916359;75;21068;-44